sensor_id;sensor_type;location;lat;lon;timestamp;P1;durP1;ratioP1;P2;durP2;ratioP2
57333;SDS011;43165;50.998;18.164;2022-11-04T00:03:43;29.60;;;12.90;;
57333;SDS011;43165;50.998;18.164;2022-11-04T00:13:44;28.90;;;15.00;;
57333;SDS011;43165;50.998;18.164;2022-11-04T00:24:05;28.00;;;14.20;;
57333;SDS011;43165;50.998;18.164;2022-11-04T00:34:43;21.40;;;14.30;;
57333;SDS011;43165;50.998;18.164;2022-11-04T00:44:25;19.70;;;15.50;;
57333;SDS011;43165;50.998;18.164;2022-11-04T00:54:06;39.20;;;14.10;;
57333;SDS011;43165;50.998;18.164;2022-11-04T01:03:51;25.20;;;15.00;;
57333;SDS011;43165;50.998;18.164;2022-11-04T01:13:35;14.30;;;11.80;;
57333;SDS011;43165;50.998;18.164;2022-11-04T01:23:18;32.70;;;16.00;;
57333;SDS011;43165;50.998;18.164;2022-11-04T01:33:02;78.40;;;33.00;;
57333;SDS011;43165;50.998;18.164;2022-11-04T01:42:44;76.10;;;22.60;;
57333;SDS011;43165;50.998;18.164;2022-11-04T01:53:14;24.90;;;12.10;;
57333;SDS011;43165;50.998;18.164;2022-11-04T02:03:03;25.70;;;14.00;;
57333;SDS011;43165;50.998;18.164;2022-11-04T02:12:53;17.80;;;10.70;;
57333;SDS011;43165;50.998;18.164;2022-11-04T02:33:41;26.30;;;12.00;;
57333;SDS011;43165;50.998;18.164;2022-11-04T02:53:58;10.50;;;8.80;;
57333;SDS011;43165;50.998;18.164;2022-11-04T03:03:46;6.50;;;6.00;;
57333;SDS011;43165;50.998;18.164;2022-11-04T03:21:22;7.80;;;7.10;;
57333;SDS011;43165;50.998;18.164;2022-11-04T03:41:46;22.40;;;12.10;;
57333;SDS011;43165;50.998;18.164;2022-11-04T03:51:31;19.10;;;10.50;;
57333;SDS011;43165;50.998;18.164;2022-11-04T04:12:29;21.00;;;10.80;;
57333;SDS011;43165;50.998;18.164;2022-11-04T04:22:44;11.30;;;10.00;;
57333;SDS011;43165;50.998;18.164;2022-11-04T04:32:50;43.10;;;6.60;;
57333;SDS011;43165;50.998;18.164;2022-11-04T04:43:37;29.70;;;9.30;;
57333;SDS011;43165;50.998;18.164;2022-11-04T04:53:38;14.40;;;10.30;;
57333;SDS011;43165;50.998;18.164;2022-11-04T05:03:20;18.20;;;11.20;;
57333;SDS011;43165;50.998;18.164;2022-11-04T05:20:39;14.90;;;10.30;;
57333;SDS011;43165;50.998;18.164;2022-11-04T05:30:25;13.70;;;9.80;;
57333;SDS011;43165;50.998;18.164;2022-11-04T05:40:08;16.10;;;10.90;;
57333;SDS011;43165;50.998;18.164;2022-11-04T05:49:52;15.00;;;9.40;;
57333;SDS011;43165;50.998;18.164;2022-11-04T05:59:34;52.90;;;21.10;;
57333;SDS011;43165;50.998;18.164;2022-11-04T06:09:17;18.10;;;13.30;;
57333;SDS011;43165;50.998;18.164;2022-11-04T06:18:59;6.00;;;5.30;;
57333;SDS011;43165;50.998;18.164;2022-11-04T06:28:43;6.20;;;5.60;;
57333;SDS011;43165;50.998;18.164;2022-11-04T06:38:28;24.80;;;14.10;;
57333;SDS011;43165;50.998;18.164;2022-11-04T06:48:21;18.10;;;9.80;;
57333;SDS011;43165;50.998;18.164;2022-11-04T06:58:03;13.30;;;11.40;;
57333;SDS011;43165;50.998;18.164;2022-11-04T07:07:45;27.60;;;12.40;;
57333;SDS011;43165;50.998;18.164;2022-11-04T07:17:27;21.40;;;10.90;;
57333;SDS011;43165;50.998;18.164;2022-11-04T07:27:09;14.90;;;10.80;;
57333;SDS011;43165;50.998;18.164;2022-11-04T07:36:53;16.40;;;10.30;;
57333;SDS011;43165;50.998;18.164;2022-11-04T07:46:38;9.30;;;8.50;;
57333;SDS011;43165;50.998;18.164;2022-11-04T07:56:22;11.00;;;9.90;;
57333;SDS011;43165;50.998;18.164;2022-11-04T08:13:31;26.70;;;13.90;;
57333;SDS011;43165;50.998;18.164;2022-11-04T08:23:22;15.80;;;11.50;;
57333;SDS011;43165;50.998;18.164;2022-11-04T08:33:20;15.10;;;11.20;;
57333;SDS011;43165;50.998;18.164;2022-11-04T08:43:02;32.10;;;15.10;;
57333;SDS011;43165;50.998;18.164;2022-11-04T08:52:46;31.00;;;16.20;;
57333;SDS011;43165;50.998;18.164;2022-11-04T09:02:28;60.40;;;26.10;;
57333;SDS011;43165;50.998;18.164;2022-11-04T09:12:12;67.40;;;24.10;;
57333;SDS011;43165;50.998;18.164;2022-11-04T09:21:54;101.90;;;34.30;;
57333;SDS011;43165;50.998;18.164;2022-11-04T09:31:36;56.80;;;23.70;;
57333;SDS011;43165;50.998;18.164;2022-11-04T09:51:10;54.00;;;23.80;;
57333;SDS011;43165;50.998;18.164;2022-11-04T10:01:14;27.00;;;12.90;;
57333;SDS011;43165;50.998;18.164;2022-11-04T10:22:18;45.20;;;22.70;;
57333;SDS011;43165;50.998;18.164;2022-11-04T10:33:03;23.90;;;11.20;;
57333;SDS011;43165;50.998;18.164;2022-11-04T10:43:12;32.70;;;18.50;;
57333;SDS011;43165;50.998;18.164;2022-11-04T10:53:27;39.10;;;15.90;;
57333;SDS011;43165;50.998;18.164;2022-11-04T11:03:29;51.50;;;21.20;;
57333;SDS011;43165;50.998;18.164;2022-11-04T11:11:08;48.30;;;25.30;;
57333;SDS011;43165;50.998;18.164;2022-11-04T11:21:04;33.40;;;20.10;;
57333;SDS011;43165;50.998;18.164;2022-11-04T11:31:13;87.70;;;33.20;;
57333;SDS011;43165;50.998;18.164;2022-11-04T11:41:17;45.50;;;26.60;;
57333;SDS011;43165;50.998;18.164;2022-11-04T11:51:21;44.70;;;21.80;;
57333;SDS011;43165;50.998;18.164;2022-11-04T12:01:35;37.20;;;21.00;;
57333;SDS011;43165;50.998;18.164;2022-11-04T12:19:38;18.50;;;16.60;;
57333;SDS011;43165;50.998;18.164;2022-11-04T12:29:54;44.20;;;23.30;;
57333;SDS011;43165;50.998;18.164;2022-11-04T12:50:40;26.30;;;19.00;;
57333;SDS011;43165;50.998;18.164;2022-11-04T13:01:18;27.40;;;15.40;;
57333;SDS011;43165;50.998;18.164;2022-11-04T13:12:08;22.20;;;14.40;;
57333;SDS011;43165;50.998;18.164;2022-11-04T13:22:06;249.40;;;87.50;;
57333;SDS011;43165;50.998;18.164;2022-11-04T13:52:20;43.60;;;19.00;;
57333;SDS011;43165;50.998;18.164;2022-11-04T14:23:26;8.90;;;8.30;;
57333;SDS011;43165;50.998;18.164;2022-11-04T14:33:38;28.40;;;16.10;;
57333;SDS011;43165;50.998;18.164;2022-11-04T14:43:39;11.60;;;10.50;;
57333;SDS011;43165;50.998;18.164;2022-11-04T14:53:25;20.00;;;14.70;;
57333;SDS011;43165;50.998;18.164;2022-11-04T15:03:26;9.90;;;9.00;;
57333;SDS011;43165;50.998;18.164;2022-11-04T15:28:58;78.10;;;34.00;;
57333;SDS011;43165;50.998;18.164;2022-11-04T15:38:46;188.10;;;54.50;;
57333;SDS011;43165;50.998;18.164;2022-11-04T15:49:03;57.10;;;20.30;;
57333;SDS011;43165;50.998;18.164;2022-11-04T15:58:55;293.80;;;122.20;;
57333;SDS011;43165;50.998;18.164;2022-11-04T16:09:21;83.00;;;32.20;;
57333;SDS011;43165;50.998;18.164;2022-11-04T16:19:44;99.90;;;41.30;;
57333;SDS011;43165;50.998;18.164;2022-11-04T16:29:32;83.30;;;34.40;;
57333;SDS011;43165;50.998;18.164;2022-11-04T16:39:37;86.50;;;31.80;;
57333;SDS011;43165;50.998;18.164;2022-11-04T16:56:39;272.80;;;81.10;;
57333;SDS011;43165;50.998;18.164;2022-11-04T17:06:23;526.90;;;206.60;;
57333;SDS011;43165;50.998;18.164;2022-11-04T17:16:06;386.40;;;126.40;;
57333;SDS011;43165;50.998;18.164;2022-11-04T17:33:16;206.00;;;70.70;;
57333;SDS011;43165;50.998;18.164;2022-11-04T17:43:22;231.70;;;79.20;;
57333;SDS011;43165;50.998;18.164;2022-11-04T17:53:42;265.50;;;81.80;;
57333;SDS011;43165;50.998;18.164;2022-11-04T18:10:57;513.60;;;223.80;;
57333;SDS011;43165;50.998;18.164;2022-11-04T18:20:44;146.40;;;51.50;;
57333;SDS011;43165;50.998;18.164;2022-11-04T18:37:47;249.40;;;72.80;;
57333;SDS011;43165;50.998;18.164;2022-11-04T18:47:30;149.60;;;60.70;;
57333;SDS011;43165;50.998;18.164;2022-11-04T18:57:12;38.50;;;25.40;;
57333;SDS011;43165;50.998;18.164;2022-11-04T19:06:56;88.10;;;24.60;;
57333;SDS011;43165;50.998;18.164;2022-11-04T19:16:58;138.30;;;43.80;;
57333;SDS011;43165;50.998;18.164;2022-11-04T19:26:40;142.40;;;61.50;;
57333;SDS011;43165;50.998;18.164;2022-11-04T19:36:22;172.70;;;59.00;;
57333;SDS011;43165;50.998;18.164;2022-11-04T19:53:46;100.00;;;45.40;;
57333;SDS011;43165;50.998;18.164;2022-11-04T20:03:35;179.50;;;76.90;;
57333;SDS011;43165;50.998;18.164;2022-11-04T20:13:18;68.40;;;30.50;;
57333;SDS011;43165;50.998;18.164;2022-11-04T20:23:28;96.70;;;54.30;;
57333;SDS011;43165;50.998;18.164;2022-11-04T20:33:10;92.60;;;47.90;;
57333;SDS011;43165;50.998;18.164;2022-11-04T20:42:53;94.80;;;41.00;;
57333;SDS011;43165;50.998;18.164;2022-11-04T20:52:36;44.40;;;25.80;;
57333;SDS011;43165;50.998;18.164;2022-11-04T21:09:43;108.60;;;51.30;;
57333;SDS011;43165;50.998;18.164;2022-11-04T21:19:26;169.20;;;63.10;;
57333;SDS011;43165;50.998;18.164;2022-11-04T21:29:11;170.10;;;62.40;;
57333;SDS011;43165;50.998;18.164;2022-11-04T21:38:55;149.60;;;55.30;;
57333;SDS011;43165;50.998;18.164;2022-11-04T21:48:45;122.30;;;56.60;;
57333;SDS011;43165;50.998;18.164;2022-11-04T21:58:29;58.60;;;36.40;;
57333;SDS011;43165;50.998;18.164;2022-11-04T22:08:20;118.80;;;51.10;;
57333;SDS011;43165;50.998;18.164;2022-11-04T22:25:37;128.80;;;43.50;;
57333;SDS011;43165;50.998;18.164;2022-11-04T22:35:19;88.10;;;29.60;;
57333;SDS011;43165;50.998;18.164;2022-11-04T22:45:02;109.40;;;51.20;;
57333;SDS011;43165;50.998;18.164;2022-11-04T22:54:45;147.30;;;57.40;;
57333;SDS011;43165;50.998;18.164;2022-11-04T23:04:27;164.20;;;61.30;;
57333;SDS011;43165;50.998;18.164;2022-11-04T23:14:27;138.40;;;52.00;;
57333;SDS011;43165;50.998;18.164;2022-11-04T23:32:57;19.60;;;16.20;;
57333;SDS011;43165;50.998;18.164;2022-11-04T23:43:00;71.30;;;29.90;;
57333;SDS011;43165;50.998;18.164;2022-11-04T23:53:56;71.20;;;37.30;;
